Manilla, Indiana
Current Conditions -  °F | °C
As of 2:11 PM on Sunday 23 Nov 2014 (Local Time) from KGEZ Reporting Station
Light Rain Light Rain  
Wind Chill: 55°   Ceiling: 2800
Heat Index: 55°   Visibility: 7mi
Dew Point: 50°   Wind: 14mph
Humidity: 83%   Direction: 140°SE
Pressure: 29.65"   Gusts: NA
Location:  39.57°N, 85.62°W
Report Text: KGEZ 231911Z AUTO 14012KT 7SM -RA BKN028 OVC033 13/10 A2965 RMK AO2 P0003 T01280100
Loading
Personal Weather Stations






























Interactive Weather Map New forecast layout! Learn more

10-Day Weather Forecast

Advertisements
Track Severe Weather on mobile